F/V Le Medeluc — FGRM — position and weather

sailwx.info

Track history (hours):
 
Tides and Currents Weather Stations Pressure Air Temp Water Temp Dewpoint Dewpoint Depression Visibility Wind Speed Wind Dir Waves Ship Positions

F/V Le Medeluc

Last reported at 2018-Apr-24 20:04 UTC. Time now 2018-Apr-26 20:55 UTC.
Position N 45°58' W 002°55'.

Length 16 m; draft 3.2 m.

Type: Fishing. MMSI: 228113000.

Date/timePositionNaut miles runAvg speedWind from/ knotsBaromVisibWave heightAir tempDewpointWater temp
2018-Apr-24 20:04N 45°58' W 002°55'0 3.5
2018-Apr-24 20:00N 45°57' W 002°55'53 1.1
2018-Apr-22 17:47N 45°37' W 001°44'1 4.0
2018-Apr-22 17:30N 45°37' W 001°46'4 3.9
2018-Apr-22 16:26N 45°34' W 001°51'2 3.0
2018-Apr-22 15:51N 45°35' W 001°49'4 3.5
2018-Apr-22 14:36N 45°38' W 001°44'0 3.1
2018-Apr-22 14:28N 45°37' W 001°44'7 3.8
2018-Apr-22 12:44N 45°34' W 001°52'6 3.7
2018-Apr-22 10:59N 45°37' W 001°44'5 2.9
2018-Apr-22 09:11N 45°35' W 001°50'1 2.9
2018-Apr-22 08:46N 45°35' W 001°49'4 3.6
2018-Apr-22 07:36N 45°38' W 001°44'1 3.6
2018-Apr-22 07:14N 45°37' W 001°45'7 3.9
2018-Apr-22 05:20N 45°33' W 001°55'  
Track history (hours):
 
Tides and Currents Weather Stations Pressure Air Temp Water Temp Dewpoint Dewpoint Depression Visibility Wind Speed Wind Dir Waves Ship Positions

F/V Le Medeluc

Last reported at 2018-Apr-24 20:04 UTC. Time now 2018-Apr-26 20:55 UTC.
Position N 45°58' W 002°55'.

Length 16 m; draft 3.2 m.

Type: Fishing. MMSI: 228113000.

Date/timePositionNaut miles runAvg speedWind from/ knotsBaromVisibWave heightAir tempDewpointWater temp
2018-Apr-24 20:04N 45°58' W 002°55'0 3.5
2018-Apr-24 20:00N 45°57' W 002°55'53 1.1
2018-Apr-22 17:47N 45°37' W 001°44'1 4.0
2018-Apr-22 17:30N 45°37' W 001°46'4 3.9
2018-Apr-22 16:26N 45°34' W 001°51'2 3.0
2018-Apr-22 15:51N 45°35' W 001°49'4 3.5
2018-Apr-22 14:36N 45°38' W 001°44'0 3.1
2018-Apr-22 14:28N 45°37' W 001°44'7 3.8
2018-Apr-22 12:44N 45°34' W 001°52'6 3.7
2018-Apr-22 10:59N 45°37' W 001°44'5 2.9
2018-Apr-22 09:11N 45°35' W 001°50'1 2.9
2018-Apr-22 08:46N 45°35' W 001°49'4 3.6
2018-Apr-22 07:36N 45°38' W 001°44'1 3.6
2018-Apr-22 07:14N 45°37' W 001°45'7 3.9
2018-Apr-22 05:20N 45°33' W 001°55'  

Dump ship's entire track history